createdAt,value
2024-05-09T00:01:20.438Z,99797.52
2024-05-09T00:04:13.061Z,99790.83
2024-05-09T00:06:59.025Z,99788.52
2024-05-09T00:09:52.006Z,99782.69
2024-05-09T00:12:44.452Z,99787.67
2024-05-09T00:15:37.326Z,99783.42
2024-05-09T00:18:24.238Z,99785.48
2024-05-09T00:21:17.367Z,99785.16
2024-05-09T00:24:10.146Z,99782.77
2024-05-09T00:27:02.651Z,99782.11
2024-05-09T00:29:55.541Z,99795.37
2024-05-09T00:32:38.560Z,99798.05
2024-05-09T00:35:31.253Z,99795.01
2024-05-09T00:38:23.923Z,99790.19
2024-05-09T00:41:18.955Z,99792.34
2024-05-09T00:44:56.889Z,99795.34
2024-05-09T00:47:50.528Z,99794.67
2024-05-09T00:50:45.752Z,99794.36
2024-05-09T00:53:38.661Z,99793.14
2024-05-09T00:56:31.642Z,99788.64
2024-05-09T00:59:28.687Z,99785.20
2024-05-09T01:02:22.350Z,99787.63
2024-05-09T01:05:15.231Z,99786.61
2024-05-09T01:08:09.028Z,99787.16
2024-05-09T01:11:01.786Z,99791.90
2024-05-09T01:13:54.127Z,99793.36
2024-05-09T01:16:38.891Z,99794.51
2024-05-09T01:19:22.383Z,99792.48
2024-05-09T01:22:07.917Z,99791.36
2024-05-09T01:24:59.910Z,99783.09
2024-05-09T01:28:16.317Z,99786.24
2024-05-09T01:31:08.636Z,99785.38
2024-05-09T01:34:00.593Z,99786.95
2024-05-09T01:36:43.192Z,99789.38
2024-05-09T01:39:35.252Z,99794.76
2024-05-09T01:44:05.760Z,99792.50
2024-05-09T01:52:13.252Z,99785.08
2024-05-09T01:55:06.323Z,99783.81
2024-05-09T01:57:58.570Z,99783.25
2024-05-09T02:00:43.727Z,99781.14
2024-05-09T02:03:27.077Z,99778.82
2024-05-09T02:06:19.157Z,99778.77
2024-05-09T02:09:00.984Z,99774.16
2024-05-09T02:11:53.189Z,99775.33
2024-05-09T02:14:38.695Z,99782.90
2024-05-09T02:17:31.069Z,99779.18
2024-05-09T02:20:30.552Z,99781.39
2024-05-09T02:23:27.792Z,99776.12
2024-05-09T02:26:20.071Z,99780.92
2024-05-09T02:29:04.651Z,99779.46
2024-05-09T02:31:47.910Z,99776.78
2024-05-09T02:34:40.107Z,99779.01
2024-05-09T02:37:32.151Z,99777.38
2024-05-09T02:40:33.208Z,99778.02
2024-05-09T02:43:27.843Z,99780.72
2024-05-09T02:46:19.915Z,99780.09
2024-05-09T02:49:05.897Z,99783.14
2024-05-09T02:51:58.135Z,99787.24
2024-05-09T02:54:50.163Z,99779.83
2024-05-09T02:57:42.191Z,99785.47
2024-05-09T03:00:39.033Z,99785.95
2024-05-09T03:03:23.807Z,99788.48
2024-05-09T03:06:09.193Z,99793.27
2024-05-09T03:09:01.627Z,99792.33
2024-05-09T03:11:54.360Z,99793.31
2024-05-09T03:14:35.552Z,99795.20
2024-05-09T03:17:27.523Z,99796.27
2024-05-09T03:20:20.409Z,99797.86
2024-05-09T03:23:16.246Z,99799.81
2024-05-09T03:26:12.697Z,99799.88
2024-05-09T03:28:54.575Z,99800.30
2024-05-09T03:31:46.817Z,99802.34
2024-05-09T03:34:41.239Z,99798.77
2024-05-09T03:37:33.239Z,99792.67
2024-05-09T03:40:23.679Z,99794.88
2024-05-09T03:43:10.904Z,99795.57
2024-05-09T03:46:02.958Z,99796.12
2024-05-09T03:48:55.179Z,99801.20
2024-05-09T03:51:27.039Z,99804.39
2024-05-09T03:54:03.584Z,99804.48
2024-05-09T03:56:55.555Z,99806.20
2024-05-09T03:59:41.376Z,99805.86
2024-05-09T04:02:33.489Z,99803.76
2024-05-09T04:05:26.171Z,99809.11
2024-05-09T04:08:18.345Z,99813.58
2024-05-09T04:11:10.529Z,99813.14
2024-05-09T04:13:55.682Z,99813.21
2024-05-09T04:16:49.882Z,99819.54
2024-05-09T04:19:34.376Z,99816.15
2024-05-09T04:22:26.615Z,99820.77
2024-05-09T04:25:17.626Z,99822.70
2024-05-09T04:28:09.954Z,99821.39
2024-05-09T04:30:54.720Z,99821.84
2024-05-09T04:33:46.823Z,99820.59
2024-05-09T04:36:31.394Z,99816.14
2024-05-09T04:39:23.372Z,99815.41
2024-05-09T04:42:08.412Z,99824.31
2024-05-09T04:44:56.431Z,99823.09
2024-05-09T04:47:48.451Z,99829.77
2024-05-09T04:50:40.689Z,99834.92
2024-05-09T04:53:32.976Z,99834.86
2024-05-09T04:56:24.193Z,99836.73
2024-05-09T04:59:16.241Z,99840.14
2024-05-09T05:02:08.572Z,99838.56
2024-05-09T05:05:00.973Z,99838.23
2024-05-09T05:07:53.156Z,99841.48
2024-05-09T05:10:38.036Z,99845.36
2024-05-09T05:13:36.669Z,99841.87
2024-05-09T05:16:55.093Z,99847.66
2024-05-09T05:19:47.340Z,99851.17
2024-05-09T05:22:42.941Z,99850.83
2024-05-09T05:25:35.157Z,99857.85
2024-05-09T05:28:27.064Z,99858.55
2024-05-09T05:31:19.377Z,99853.27
2024-05-09T05:34:11.707Z,99853.64
2024-05-09T05:36:56.580Z,99853.64
2024-05-09T05:39:48.556Z,99854.33
2024-05-09T05:42:40.660Z,99856.44
2024-05-09T05:45:56.587Z,99860.46
2024-05-09T05:48:48.826Z,99866.96
2024-05-09T05:51:41.052Z,99868.17
2024-05-09T05:54:31.778Z,99863.27
2024-05-09T05:57:23.892Z,99862.01
2024-05-09T06:00:26.040Z,99861.63
2024-05-09T06:03:22.565Z,99858.76
2024-05-09T06:06:15.886Z,99857.13
2024-05-09T06:09:07.836Z,99858.63
2024-05-09T06:17:14.224Z,99855.88
2024-05-09T06:20:11.041Z,99854.86
2024-05-09T06:23:08.346Z,99852.81
2024-05-09T06:26:00.613Z,99851.79
2024-05-09T06:28:51.302Z,99855.72
2024-05-09T06:31:43.735Z,99858.27
2024-05-09T06:34:37.008Z,99856.45
2024-05-09T06:37:12.385Z,99856.38
2024-05-09T06:40:07.282Z,99861.39
2024-05-09T06:42:59.003Z,99860.17
2024-05-09T06:45:53.025Z,99861.58
2024-05-09T06:48:48.099Z,99862.10
2024-05-09T06:51:33.164Z,99863.71
2024-05-09T06:54:25.077Z,99863.02
2024-05-09T06:57:08.415Z,99862.29
2024-05-09T07:00:00.669Z,99862.92
2024-05-09T07:02:52.937Z,99864.27
2024-05-09T07:05:46.254Z,99863.62
2024-05-09T07:08:39.057Z,99861.12
2024-05-09T07:11:20.298Z,99866.98
2024-05-09T07:14:12.454Z,99860.41
2024-05-09T07:16:57.352Z,99861.73
2024-05-09T07:19:49.640Z,99856.52
2024-05-09T07:22:41.879Z,99856.14
2024-05-09T07:25:22.909Z,99856.73
2024-05-09T07:28:10.787Z,99860.77
2024-05-09T07:32:37.837Z,99860.88
2024-05-09T07:35:22.890Z,99861.05
2024-05-09T07:38:15.250Z,99857.48
2024-05-09T07:40:52.756Z,99859.17
2024-05-09T07:43:35.958Z,99859.77
2024-05-09T07:50:55.874Z,99855.30
2024-05-09T07:53:30.006Z,99855.02
2024-05-09T07:55:28.153Z,99852.79
2024-05-09T07:58:20.173Z,99849.39
2024-05-09T08:02:46.839Z,99849.86
2024-05-09T08:05:39.070Z,99851.34
2024-05-09T08:08:31.295Z,99849.64
2024-05-09T08:11:08.614Z,99851.60
2024-05-09T08:14:48.725Z,99847.69
2024-05-09T08:28:09.243Z,99840.95
2024-05-09T08:31:05.162Z,99840.81
2024-05-09T08:33:58.070Z,99842.79
2024-05-09T08:36:43.760Z,99846.30
2024-05-09T08:39:36.783Z,99843.38
2024-05-09T08:42:35.838Z,99845.20
2024-05-09T08:45:29.585Z,99842.39
2024-05-09T08:48:26.830Z,99843.05
2024-05-09T08:51:19.161Z,99846.34
2024-05-09T08:54:03.956Z,99843.46
2024-05-09T08:56:56.255Z,99842.82
2024-05-09T08:59:50.669Z,99842.59
2024-05-09T09:02:44.382Z,99841.55
2024-05-09T09:05:21.350Z,99840.50
2024-05-09T09:08:08.430Z,99840.57
2024-05-09T09:10:55.542Z,99834.35
2024-05-09T09:13:46.040Z,99831.38
2024-05-09T09:16:38.168Z,99831.14
2024-05-09T09:19:30.327Z,99830.91
2024-05-09T09:22:22.600Z,99833.48
2024-05-09T09:25:14.525Z,99831.81
2024-05-09T09:28:07.727Z,99831.66
2024-05-09T09:31:05.380Z,99830.46
2024-05-09T09:33:57.946Z,99832.79
2024-05-09T09:36:51.400Z,99832.84
2024-05-09T09:39:48.826Z,99829.66
2024-05-09T09:42:43.584Z,99829.39
2024-05-09T09:45:36.922Z,99830.15
2024-05-09T09:48:29.050Z,99830.60
2024-05-09T09:51:22.535Z,99837.23
2024-05-09T09:54:14.726Z,99839.85
2024-05-09T09:57:08.055Z,99833.98
2024-05-09T10:00:01.543Z,99827.67
2024-05-09T10:02:53.554Z,99828.92
2024-05-09T10:05:47.366Z,99825.48
2024-05-09T10:08:32.878Z,99824.14
2024-05-09T10:11:25.438Z,99825.37
2024-05-09T10:14:22.803Z,99826.07
2024-05-09T10:17:04.638Z,99825.79
2024-05-09T10:19:45.637Z,99827.47
2024-05-09T10:22:30.835Z,99822.33
2024-05-09T10:25:23.745Z,99818.63
2024-05-09T10:28:04.920Z,99821.65
2024-05-09T10:30:37.459Z,99822.66
2024-05-09T10:33:22.275Z,99822.33
2024-05-09T10:36:13.560Z,99822.74
2024-05-09T10:38:45.605Z,99824.88
2024-05-09T10:41:40.363Z,99819.45
2024-05-09T10:44:24.736Z,99815.30
2024-05-09T10:47:20.390Z,99815.38
2024-05-09T10:50:22.211Z,99815.08
2024-05-09T10:53:11.501Z,99806.78
2024-05-09T10:56:03.932Z,99803.19
2024-05-09T10:58:51.695Z,99803.81
2024-05-09T11:01:25.165Z,99799.74
2024-05-09T11:04:17.770Z,99794.87
2024-05-09T11:07:11.364Z,99790.08
2024-05-09T11:10:04.901Z,99789.48
2024-05-09T11:12:48.487Z,99790.55
2024-05-09T11:15:43.904Z,99790.71
2024-05-09T11:18:33.457Z,99788.42
2024-05-09T11:21:28.442Z,99786.06
2024-05-09T11:24:20.712Z,99781.02
2024-05-09T11:27:13.533Z,99777.95
2024-05-09T11:30:09.205Z,99774.20
2024-05-09T11:32:56.035Z,99773.09
2024-05-09T11:35:48.527Z,99774.35
2024-05-09T11:38:33.492Z,99773.88
2024-05-09T11:41:27.060Z,99770.38
2024-05-09T11:44:08.730Z,99764.64
2024-05-09T11:46:53.297Z,99767.93
2024-05-09T11:49:45.904Z,99767.25
2024-05-09T11:52:37.960Z,99769.06
2024-05-09T11:57:07.708Z,99768.08
2024-05-09T11:59:59.724Z,99762.31
2024-05-09T12:02:52.574Z,99763.61
2024-05-09T12:05:38.611Z,99758.63
2024-05-09T12:08:22.254Z,99756.02
2024-05-09T12:11:04.464Z,99748.59
2024-05-09T12:13:56.564Z,99748.05
2024-05-09T12:16:48.812Z,99747.55
2024-05-09T12:19:40.958Z,99752.21
2024-05-09T12:22:33.048Z,99746.77
2024-05-09T12:25:25.158Z,99744.68
2024-05-09T12:28:10.022Z,99742.48
2024-05-09T12:30:42.316Z,99743.95
2024-05-09T12:33:14.635Z,99741.21
2024-05-09T12:35:49.171Z,99733.36
2024-05-09T12:38:25.052Z,99732.04
2024-05-09T12:41:17.153Z,99730.93
2024-05-09T12:43:49.570Z,99729.98
2024-05-09T12:46:24.317Z,99731.73
2024-05-09T12:49:06.870Z,99731.58
2024-05-09T12:51:42.128Z,99730.45
2024-05-09T12:54:14.101Z,99731.86
2024-05-09T12:56:46.008Z,99729.44
2024-05-09T12:59:38.342Z,99727.38
2024-05-09T13:02:10.499Z,99727.26
2024-05-09T13:04:47.379Z,99729.93
2024-05-09T13:07:29.530Z,99728.61
2024-05-09T13:10:29.055Z,99726.30
2024-05-09T13:13:04.473Z,99714.56
2024-05-09T13:15:37.496Z,99714.72
2024-05-09T13:18:12.495Z,99710.20
2024-05-09T13:21:04.667Z,99705.55
2024-05-09T13:23:39.747Z,99705.04
2024-05-09T13:26:14.678Z,99702.29
2024-05-09T13:28:48.792Z,99702.34
2024-05-09T13:31:20.817Z,99698.31
2024-05-09T13:33:55.412Z,99695.02
2024-05-09T13:36:38.443Z,99693.92
2024-05-09T13:39:10.902Z,99695.58
2024-05-09T13:41:45.732Z,99696.93
2024-05-09T13:44:17.644Z,99694.96
2024-05-09T13:46:52.528Z,99692.16
2024-05-09T13:49:44.675Z,99689.95
2024-05-09T13:52:29.410Z,99686.77
2024-05-09T13:55:01.568Z,99684.38
2024-05-09T13:57:33.735Z,99680.77
2024-05-09T14:00:38.042Z,99682.73
2024-05-09T14:03:19.218Z,99683.74
2024-05-09T14:06:03.474Z,99686.19
2024-05-09T14:08:35.544Z,99678.34
2024-05-09T14:11:07.673Z,99678.98
2024-05-09T14:13:43.244Z,99676.95
2024-05-09T14:16:26.357Z,99674.92
2024-05-09T14:19:09.113Z,99670.20
2024-05-09T14:21:41.072Z,99664.98
2024-05-09T14:24:33.398Z,99662.59
2024-05-09T14:27:15.664Z,99659.11
2024-05-09T14:30:15.056Z,99655.22
2024-05-09T14:33:16.220Z,99654.98
2024-05-09T14:36:09.279Z,99654.67
2024-05-09T14:38:52.279Z,99650.64
2024-05-09T14:41:44.290Z,99654.06
2024-05-09T14:44:36.269Z,99651.74
2024-05-09T14:47:28.326Z,99652.40
2024-05-09T14:50:27.875Z,99656.46
2024-05-09T14:53:19.386Z,99651.81
2024-05-09T14:56:11.804Z,99648.30
2024-05-09T14:59:03.868Z,99643.45
2024-05-09T15:01:56.120Z,99641.75
2024-05-09T15:04:48.424Z,99640.18
2024-05-09T15:07:31.706Z,99636.53
2024-05-09T15:10:31.517Z,99634.33
2024-05-09T15:13:20.288Z,99636.02
2024-05-09T15:16:12.854Z,99631.65
2024-05-09T15:18:59.522Z,99629.45
2024-05-09T15:21:44.572Z,99626.58
2024-05-09T15:24:35.813Z,99621.05
2024-05-09T15:27:20.929Z,99618.61
2024-05-09T15:30:10.407Z,99618.42
2024-05-09T15:33:04.642Z,99613.56
2024-05-09T15:35:47.532Z,99616.38
2024-05-09T15:38:40.182Z,99614.40
2024-05-09T15:41:32.084Z,99616.11
2024-05-09T15:44:16.997Z,99613.20
2024-05-09T15:46:58.927Z,99611.23
2024-05-09T15:49:38.463Z,99610.36
2024-05-09T15:52:30.664Z,99609.38
2024-05-09T15:55:18.742Z,99609.81
2024-05-09T15:58:02.954Z,99608.02
2024-05-09T16:00:55.589Z,99603.64
2024-05-09T16:03:47.927Z,99606.73
2024-05-09T16:06:40.591Z,99606.60
2024-05-09T16:09:32.724Z,99606.63
2024-05-09T16:12:23.483Z,99603.20
2024-05-09T16:15:09.136Z,99604.77
2024-05-09T16:18:01.385Z,99604.02
2024-05-09T16:24:23.978Z,99608.60
2024-05-09T16:27:16.084Z,99608.45
2024-05-09T16:30:04.066Z,99609.77
2024-05-09T16:32:45.225Z,99604.49
2024-05-09T16:35:28.603Z,99606.38
2024-05-09T16:38:20.993Z,99607.30
2024-05-09T16:41:14.846Z,99607.64
2024-05-09T16:44:03.964Z,99608.28
2024-05-09T16:46:46.971Z,99608.54
2024-05-09T16:49:39.115Z,99600.55
2024-05-09T16:52:31.218Z,99602.44
2024-05-09T16:55:23.220Z,99604.90
2024-05-09T16:58:15.623Z,99607.41
2024-05-09T17:01:07.757Z,99603.45
2024-05-09T17:04:00.141Z,99602.42
2024-05-09T17:06:50.924Z,99600.50
2024-05-09T17:09:42.926Z,99602.49
2024-05-09T17:12:35.111Z,99606.28
2024-05-09T17:15:27.287Z,99610.08
2024-05-09T17:18:19.663Z,99609.83
2024-05-09T17:21:11.636Z,99610.02
2024-05-09T17:24:03.802Z,99604.42
2024-05-09T17:26:55.760Z,99609.65
2024-05-09T17:29:48.160Z,99609.84
2024-05-09T17:32:40.781Z,99609.83
2024-05-09T17:35:33.139Z,99610.52
2024-05-09T17:38:26.074Z,99611.41
2024-05-09T17:41:11.811Z,99608.48
2024-05-09T17:44:06.278Z,99612.67
2024-05-09T17:46:50.811Z,99611.36
2024-05-09T17:49:43.039Z,99610.21
2024-05-09T17:52:35.188Z,99608.50
2024-05-09T17:55:12.773Z,99611.30
2024-05-09T17:58:05.543Z,99609.18
2024-05-09T18:00:57.907Z,99610.21
2024-05-09T18:03:50.252Z,99613.77
2024-05-09T18:06:34.997Z,99613.02
2024-05-09T18:09:17.086Z,99613.11
2024-05-09T18:12:10.168Z,99622.73
2024-05-09T18:15:02.677Z,99620.54
2024-05-09T18:17:55.129Z,99625.66
2024-05-09T18:20:47.291Z,99629.98
2024-05-09T18:23:39.542Z,99629.61
2024-05-09T18:26:31.565Z,99637.51
2024-05-09T18:29:23.704Z,99640.63
2024-05-09T18:32:15.598Z,99645.52
2024-05-09T18:35:08.883Z,99647.36
2024-05-09T18:37:55.441Z,99653.79
2024-05-09T18:40:49.257Z,99659.34
2024-05-09T18:43:45.237Z,99661.85
2024-05-09T18:46:40.624Z,99663.85
2024-05-09T18:49:25.470Z,99667.55
2024-05-09T18:52:11.436Z,99672.11
2024-05-09T18:55:04.386Z,99671.71
2024-05-09T18:57:56.599Z,99676.61
2024-05-09T19:00:40.232Z,99679.91
2024-05-09T19:03:35.118Z,99678.59
2024-05-09T19:06:27.269Z,99675.55
2024-05-09T19:09:19.430Z,99681.48
2024-05-09T19:12:11.546Z,99680.92
2024-05-09T19:15:03.727Z,99682.62
2024-05-09T19:17:55.837Z,99685.89
2024-05-09T19:20:48.054Z,99688.96
2024-05-09T19:23:38.084Z,99693.80
2024-05-09T19:26:33.005Z,99695.98
2024-05-09T19:29:16.755Z,99697.45
2024-05-09T19:32:01.890Z,99697.86
2024-05-09T19:34:46.701Z,99701.40
2024-05-09T19:37:37.219Z,99705.16
2024-05-09T19:40:29.003Z,99703.63
2024-05-09T19:44:59.170Z,99701.21
2024-05-09T19:47:35.548Z,99710.02
2024-05-09T19:50:36.853Z,99709.86
2024-05-09T19:53:34.361Z,99711.98
2024-05-09T19:56:26.549Z,99710.40
2024-05-09T19:59:08.684Z,99716.20
2024-05-09T20:02:00.978Z,99720.56
2024-05-09T20:04:53.136Z,99720.52
2024-05-09T20:07:38.018Z,99716.45
2024-05-09T20:10:33.025Z,99719.05
2024-05-09T20:13:17.079Z,99718.48
2024-05-09T20:16:10.350Z,99718.79
2024-05-09T20:19:02.551Z,99722.23
2024-05-09T20:21:54.743Z,99718.16
2024-05-09T20:30:01.125Z,99724.33
2024-05-09T20:32:53.155Z,99726.38
2024-05-09T20:35:43.661Z,99726.85
2024-05-09T20:38:35.906Z,99726.77
2024-05-09T20:41:27.944Z,99725.30
2024-05-09T20:44:19.837Z,99727.86
2024-05-09T20:47:12.081Z,99730.95
2024-05-09T20:50:09.163Z,99731.60
2024-05-09T20:52:59.023Z,99729.44
2024-05-09T20:55:35.400Z,99731.81
2024-05-09T20:58:17.723Z,99734.73
2024-05-09T21:06:31.613Z,99731.76
2024-05-09T21:09:25.007Z,99733.92
2024-05-09T21:12:15.580Z,99734.70
2024-05-09T21:14:58.976Z,99738.48
2024-05-09T21:17:48.771Z,99735.42
2024-05-09T21:20:39.099Z,99733.60
2024-05-09T21:23:53.732Z,99734.73
2024-05-09T21:26:36.651Z,99731.84
2024-05-09T21:29:26.309Z,99733.52
2024-05-09T21:32:15.789Z,99735.86
2024-05-09T21:35:06.292Z,99735.80
2024-05-09T21:37:55.600Z,99735.89
2024-05-09T21:40:37.459Z,99735.64
2024-05-09T21:43:28.640Z,99738.19
2024-05-09T21:46:17.912Z,99738.29
2024-05-09T21:49:07.333Z,99739.80
2024-05-09T21:51:49.978Z,99740.92
2024-05-09T21:54:29.213Z,99742.60
2024-05-09T21:57:18.498Z,99746.02
2024-05-09T21:59:57.508Z,99746.14
2024-05-09T22:02:32.391Z,99745.37
2024-05-09T22:05:21.666Z,99744.59
2024-05-09T22:13:27.086Z,99737.27
2024-05-09T22:16:19.881Z,99740.27
2024-05-09T22:19:03.823Z,99742.46
2024-05-09T22:21:56.685Z,99739.05
2024-05-09T22:24:48.425Z,99736.00
2024-05-09T22:27:42.054Z,99735.39
2024-05-09T22:30:38.477Z,99737.58
2024-05-09T22:33:32.977Z,99741.13
2024-05-09T22:36:25.902Z,99742.09
2024-05-09T22:39:18.374Z,99740.94
2024-05-09T22:42:11.062Z,99738.75
2024-05-09T22:45:04.153Z,99737.05
2024-05-09T22:47:56.943Z,99737.15
2024-05-09T22:50:49.195Z,99737.76
2024-05-09T22:53:42.098Z,99732.77
2024-05-09T22:56:35.586Z,99730.61
2024-05-09T22:59:26.994Z,99729.51
2024-05-09T23:02:12.937Z,99726.81
2024-05-09T23:05:05.156Z,99730.73
2024-05-09T23:07:58.513Z,99726.45
2024-05-09T23:10:51.266Z,99729.45
2024-05-09T23:13:44.261Z,99720.65
2024-05-09T23:17:01.475Z,99724.55
2024-05-09T23:24:41.031Z,99721.00
2024-05-09T23:27:33.186Z,99725.40
2024-05-09T23:33:20.381Z,99720.48
2024-05-09T23:36:12.529Z,99725.14
2024-05-09T23:39:04.741Z,99721.94
2024-05-09T23:41:56.796Z,99725.32
2024-05-09T23:44:48.811Z,99722.96
2024-05-09T23:47:41.184Z,99722.00
2024-05-09T23:50:33.633Z,99721.78
2024-05-09T23:53:28.669Z,99723.08
2024-05-09T23:56:21.445Z,99719.71
2024-05-09T23:59:13.246Z,99713.04
